KSBP/SBP METAR and TAF weather

Enter ICAO airport designator
Station Type Date Time Source
KSBP METAR 2019/06/27 09:56 UTC NOAA

KSBP 270956Z AUTO 00000KT 10SM OVC006 12/11 A3000 RMK AO2 SLP157 T01220106


Station Type Date Time Source
KSBP Decoded METAR 2019/06/27 09:56 UTC NOAA

SAN LUIS OBISPO MC CHESNEY, CA, United States (KSBP) 35-14N 120-38W 59M
Jun 27, 2019 - 05:56 AM EDT / 2019.06.27 0956 UTC
Wind: Calm:0
Visibility: 10 mile(s):0
Sky conditions: overcast
Temperature: 54.0 F (12.2 C)
Dew Point: 51.1 F (10.6 C)
Relative Humidity: 89%
Pressure (altimeter): 30 in. Hg (1015 hPa)
ob: KSBP 270956Z AUTO 00000KT 10SM OVC006 12/11 A3000 RMK AO2 SLP157 T01220106
cycle: 10

Station Type Date Time Source
KSBP TAF 2019/06/27 08:51 UTC NOAA

TAF
AMD KSBP 270749Z 2708/2806 VRB05KT P6SM BKN009
TEMPO 2708/2712 SCT009
FM271200 VRB03KT 5SM BR BKN006
FM271600 32006KT P6SM FEW011
FM272100 31016G22KT P6SM SKC
FM280300 31010KT P6SM SKC

Example: see airport list